createdAt,value
2018-10-09T00:00:42.990Z,36.27
2018-10-09T00:03:10.418Z,32.03
2018-10-09T00:05:37.793Z,40.53
2018-10-09T00:08:05.180Z,66.37
2018-10-09T00:10:32.563Z,70.30
2018-10-09T00:12:59.957Z,59.30
2018-10-09T00:15:27.224Z,74.90
2018-10-09T00:17:55.132Z,58.13
2018-10-09T00:20:26.987Z,55.10
2018-10-09T00:22:59.890Z,86.13
2018-10-09T00:25:27.193Z,57.07
2018-10-09T00:27:55.493Z,71.87
2018-10-09T00:30:24.958Z,69.27
2018-10-09T00:32:53.152Z,81.03
2018-10-09T00:35:20.819Z,79.27
2018-10-09T00:37:49.092Z,81.23
2018-10-09T00:40:18.105Z,129.90
2018-10-09T00:42:46.935Z,112.00
2018-10-09T00:45:15.225Z,112.67
2018-10-09T00:47:44.228Z,106.07
2018-10-09T00:50:12.188Z,93.60
2018-10-09T00:52:39.899Z,93.87
2018-10-09T00:55:07.474Z,82.33
2018-10-09T00:57:34.848Z,80.67
2018-10-09T01:00:02.216Z,57.03
2018-10-09T01:02:29.530Z,66.67
2018-10-09T01:04:56.908Z,106.23
2018-10-09T01:07:25.089Z,88.73
2018-10-09T01:09:53.028Z,103.80
2018-10-09T01:12:21.372Z,91.03
2018-10-09T01:14:49.504Z,123.80
2018-10-09T01:17:18.229Z,70.15
2018-10-09T01:19:46.901Z,82.10
2018-10-09T01:22:15.839Z,136.23
2018-10-09T01:24:44.396Z,134.27
2018-10-09T01:27:14.701Z,109.50
2018-10-09T01:29:42.741Z,243.87
2018-10-09T01:32:10.179Z,130.07
2018-10-09T01:34:37.457Z,134.00
2018-10-09T01:37:05.016Z,102.83
2018-10-09T01:39:32.332Z,142.17
2018-10-09T01:41:59.710Z,185.47
2018-10-09T01:44:27.017Z,109.30
2018-10-09T01:46:54.997Z,136.33
2018-10-09T01:49:22.892Z,119.90
2018-10-09T01:51:50.935Z,161.47
2018-10-09T01:54:20.287Z,166.47
2018-10-09T01:56:49.460Z,128.73
2018-10-09T01:59:19.109Z,137.33
2018-10-09T02:01:48.777Z,150.03
2018-10-09T02:04:17.681Z,181.73
2018-10-09T02:06:47.491Z,144.63
2018-10-09T02:09:17.038Z,152.53
2018-10-09T02:11:45.543Z,153.60
2018-10-09T02:14:14.476Z,97.03
2018-10-09T02:16:41.916Z,65.83
2018-10-09T02:19:09.993Z,86.23
2018-10-09T02:21:37.286Z,92.57
2018-10-09T02:24:05.053Z,109.20
2018-10-09T02:26:32.376Z,60.47
2018-10-09T02:28:59.699Z,68.33
2018-10-09T02:31:27.322Z,77.80
2018-10-09T02:33:55.744Z,81.53
2018-10-09T02:36:23.741Z,96.10
2018-10-09T02:38:51.789Z,97.67
2018-10-09T02:41:20.000Z,124.00
2018-10-09T02:43:51.540Z,95.97
2018-10-09T02:46:19.905Z,79.33
2018-10-09T02:48:49.105Z,71.57
2018-10-09T02:51:21.878Z,59.07
2018-10-09T02:53:50.633Z,56.37
2018-10-09T02:56:20.101Z,77.50
2018-10-09T02:58:50.392Z,120.63
2018-10-09T03:01:19.390Z,341.27
2018-10-09T03:03:48.200Z,101.00
2018-10-09T03:06:18.695Z,60.50
2018-10-09T03:08:47.416Z,129.23
2018-10-09T03:11:18.145Z,117.97
2018-10-09T03:13:48.802Z,176.60
2018-10-09T03:16:18.831Z,99.20
2018-10-09T03:18:48.323Z,115.17
2018-10-09T03:21:19.165Z,119.40
2018-10-09T03:23:48.848Z,88.27
2018-10-09T03:26:19.004Z,76.10
2018-10-09T03:28:50.198Z,68.93
2018-10-09T03:31:19.870Z,61.70
2018-10-09T03:33:48.422Z,57.00
2018-10-09T03:36:17.600Z,48.10
2018-10-09T03:38:49.228Z,60.23
2018-10-09T03:41:17.709Z,69.67
2018-10-09T03:43:46.104Z,85.30
2018-10-09T03:46:17.074Z,155.90
2018-10-09T03:48:47.298Z,84.17
2018-10-09T03:51:17.847Z,97.67
2018-10-09T03:53:48.491Z,79.50
2018-10-09T03:56:20.095Z,57.70
2018-10-09T03:58:49.798Z,56.10
2018-10-09T04:01:18.039Z,65.83
2018-10-09T04:03:47.251Z,64.30
2018-10-09T04:06:17.015Z,29.53
2018-10-09T04:08:47.333Z,93.50
2018-10-09T04:11:14.957Z,122.60
2018-10-09T04:13:42.619Z,95.27
2018-10-09T04:16:11.312Z,91.60
2018-10-09T04:18:39.764Z,114.10
2018-10-09T04:21:07.688Z,133.00
2018-10-09T04:23:35.453Z,78.43
2018-10-09T04:26:02.909Z,122.27
2018-10-09T04:28:30.463Z,70.57
2018-10-09T04:30:58.278Z,60.13
2018-10-09T04:33:25.894Z,86.37
2018-10-09T04:35:53.201Z,121.87
2018-10-09T04:38:22.319Z,108.60
2018-10-09T04:40:50.874Z,147.43
2018-10-09T04:43:20.329Z,108.10
2018-10-09T04:45:48.553Z,125.23
2018-10-09T04:48:21.993Z,147.13
2018-10-09T04:50:51.364Z,54.77
2018-10-09T04:53:21.763Z,117.87
2018-10-09T04:55:50.271Z,101.00
2018-10-09T04:58:20.857Z,163.87
2018-10-09T05:00:49.618Z,97.87
2018-10-09T05:03:18.772Z,59.77
2018-10-09T05:05:48.205Z,51.33
2018-10-09T05:08:18.192Z,102.47
2018-10-09T05:10:49.084Z,107.30
2018-10-09T05:13:19.238Z,224.67
2018-10-09T05:15:52.970Z,107.83
2018-10-09T05:18:22.302Z,215.17
2018-10-09T05:20:52.705Z,78.83
2018-10-09T05:23:23.326Z,123.43
2018-10-09T05:25:52.230Z,60.73
2018-10-09T05:28:21.115Z,126.20
2018-10-09T05:30:51.411Z,97.37
2018-10-09T05:33:21.585Z,79.33
2018-10-09T05:35:50.897Z,85.10
2018-10-09T05:38:21.984Z,163.83
2018-10-09T05:40:53.825Z,54.40
2018-10-09T05:43:25.235Z,87.90
2018-10-09T05:45:55.881Z,89.43
2018-10-09T05:48:26.245Z,101.00
2018-10-09T05:50:56.345Z,80.33
2018-10-09T05:53:25.733Z,72.53
2018-10-09T05:55:54.645Z,75.13
2018-10-09T05:58:23.021Z,133.17
2018-10-09T06:00:53.250Z,98.67
2018-10-09T06:03:24.032Z,100.50
2018-10-09T06:05:56.993Z,101.90
2018-10-09T06:08:26.474Z,173.20
2018-10-09T06:10:56.314Z,150.10
2018-10-09T06:13:26.724Z,153.97
2018-10-09T06:15:58.083Z,75.43
2018-10-09T06:18:28.307Z,129.03
2018-10-09T06:20:57.537Z,125.73
2018-10-09T06:23:29.018Z,84.90
2018-10-09T06:25:57.269Z,132.03
2018-10-09T06:28:28.408Z,83.57
2018-10-09T06:30:57.018Z,77.43
2018-10-09T06:33:26.783Z,156.03
2018-10-09T06:35:55.682Z,127.07
2018-10-09T06:38:25.816Z,154.80
2018-10-09T06:40:56.630Z,133.27
2018-10-09T06:43:25.604Z,156.80
2018-10-09T06:45:54.467Z,226.00
2018-10-09T06:48:22.985Z,59.77
2018-10-09T06:50:52.067Z,107.37
2018-10-09T06:53:21.889Z,55.77
2018-10-09T06:55:53.839Z,138.00
2018-10-09T06:58:22.443Z,52.60
2018-10-09T07:00:52.281Z,89.37
2018-10-09T07:03:22.063Z,47.27
2018-10-09T07:05:51.032Z,49.40
2018-10-09T07:08:20.543Z,54.80
2018-10-09T07:10:49.103Z,41.67
2018-10-09T07:13:23.990Z,71.02
2018-10-09T07:15:52.416Z,59.30
2018-10-09T07:18:21.273Z,48.37
2018-10-09T07:20:50.644Z,65.50
2018-10-09T07:23:24.041Z,45.90
2018-10-09T07:25:53.748Z,115.80
2018-10-09T07:28:22.836Z,75.83
2018-10-09T07:30:52.101Z,86.40
2018-10-09T07:33:21.255Z,85.70
2018-10-09T07:35:52.334Z,43.43
2018-10-09T07:38:22.752Z,52.90
2018-10-09T07:40:52.182Z,33.80
2018-10-09T07:43:22.609Z,67.90
2018-10-09T07:45:51.739Z,34.47
2018-10-09T07:48:21.194Z,38.48
2018-10-09T07:50:49.700Z,29.98
2018-10-09T07:53:20.191Z,27.80
2018-10-09T07:55:52.323Z,36.48
2018-10-09T07:58:22.329Z,42.03
2018-10-09T08:00:50.219Z,26.68
2018-10-09T08:03:19.743Z,65.25
2018-10-09T08:05:53.349Z,27.07
2018-10-09T08:08:22.318Z,25.17
2018-10-09T08:10:50.608Z,26.27
2018-10-09T08:13:20.838Z,25.62
2018-10-09T08:15:52.115Z,24.98
2018-10-09T08:18:20.620Z,27.35
2018-10-09T08:20:50.941Z,27.73
2018-10-09T08:23:22.385Z,27.75
2018-10-09T08:25:51.414Z,27.37
2018-10-09T08:28:20.073Z,28.23
2018-10-09T08:30:48.753Z,29.57
2018-10-09T08:33:19.389Z,33.38
2018-10-09T08:35:49.818Z,30.35
2018-10-09T08:38:20.583Z,30.82
2018-10-09T08:40:50.185Z,30.65
2018-10-09T08:43:20.267Z,31.17
2018-10-09T08:45:50.941Z,31.35
2018-10-09T08:48:21.122Z,30.77
2018-10-09T08:50:49.196Z,31.02
2018-10-09T08:53:18.484Z,30.95
2018-10-09T08:55:49.640Z,32.00
2018-10-09T08:58:22.032Z,32.73
2018-10-09T09:00:51.141Z,32.03
2018-10-09T09:03:21.219Z,31.87
2018-10-09T09:05:50.120Z,32.03
2018-10-09T09:08:19.729Z,30.90
2018-10-09T09:10:49.829Z,30.68
2018-10-09T09:13:20.318Z,30.08
2018-10-09T09:15:51.957Z,29.90
2018-10-09T09:18:19.898Z,28.17
2018-10-09T09:20:51.129Z,28.32
2018-10-09T09:23:20.746Z,28.00
2018-10-09T09:25:50.262Z,29.32
2018-10-09T09:28:20.457Z,30.25
2018-10-09T09:30:50.040Z,28.42
2018-10-09T09:33:20.349Z,28.70
2018-10-09T09:35:49.508Z,27.62
2018-10-09T09:38:18.659Z,28.07
2018-10-09T09:40:47.946Z,27.62
2018-10-09T09:43:20.454Z,28.02
2018-10-09T09:45:50.248Z,27.93
2018-10-09T09:48:20.140Z,27.85
2018-10-09T09:50:50.109Z,27.90
2018-10-09T09:53:21.775Z,26.82
2018-10-09T09:55:53.910Z,26.25
2018-10-09T09:58:22.306Z,26.02
2018-10-09T10:00:57.909Z,26.20
2018-10-09T10:03:25.984Z,26.17
2018-10-09T10:05:53.294Z,27.30
2018-10-09T10:08:23.184Z,25.75
2018-10-09T10:10:57.449Z,25.40
2018-10-09T10:13:27.012Z,25.23
2018-10-09T10:15:54.947Z,24.23
2018-10-09T10:18:23.436Z,23.40
2018-10-09T10:20:51.955Z,23.05
2018-10-09T10:23:21.132Z,22.73
2018-10-09T10:25:50.318Z,24.63
2018-10-09T10:28:20.849Z,24.95
2018-10-09T10:30:49.502Z,24.60
2018-10-09T10:33:18.332Z,25.00
2018-10-09T10:35:50.419Z,24.55
2018-10-09T10:38:20.005Z,25.12
2018-10-09T10:40:50.298Z,23.30
2018-10-09T10:43:21.899Z,23.32
2018-10-09T10:45:51.548Z,24.02
2018-10-09T10:48:20.142Z,23.57
2018-10-09T10:50:51.095Z,23.60
2018-10-09T10:53:22.349Z,23.70
2018-10-09T10:55:50.469Z,21.35
2018-10-09T10:58:17.830Z,22.55
2018-10-09T11:00:45.151Z,21.82
2018-10-09T11:03:12.495Z,21.35
2018-10-09T11:05:39.751Z,21.17
2018-10-09T11:08:07.178Z,21.52
2018-10-09T11:10:34.436Z,27.02
2018-10-09T11:13:01.748Z,20.43
2018-10-09T11:15:29.099Z,21.15
2018-10-09T11:17:56.393Z,23.30
2018-10-09T11:20:23.768Z,22.00
2018-10-09T11:22:51.136Z,21.73
2018-10-09T11:25:18.508Z,22.15
2018-10-09T11:27:45.802Z,21.50
2018-10-09T11:30:13.132Z,20.70
2018-10-09T11:32:40.431Z,21.33
2018-10-09T11:35:07.781Z,22.70
2018-10-09T11:37:35.076Z,23.57
2018-10-09T11:40:02.461Z,25.30
2018-10-09T11:42:30.003Z,25.55
2018-10-09T11:44:57.267Z,26.00
2018-10-09T11:47:24.547Z,25.65
2018-10-09T11:49:51.862Z,29.40
2018-10-09T11:52:19.153Z,27.13
2018-10-09T11:54:46.411Z,28.12
2018-10-09T11:57:13.742Z,27.93
2018-10-09T11:59:41.054Z,27.62
2018-10-09T12:02:08.473Z,27.65
2018-10-09T12:04:35.863Z,28.10
2018-10-09T12:07:03.264Z,28.10
2018-10-09T12:09:30.613Z,28.85
2018-10-09T12:11:57.927Z,26.10
2018-10-09T12:14:25.233Z,24.92
2018-10-09T12:16:52.540Z,25.30
2018-10-09T12:19:19.835Z,23.77
2018-10-09T12:21:47.118Z,22.25
2018-10-09T12:24:14.429Z,20.25
2018-10-09T12:26:41.732Z,20.90
2018-10-09T12:29:09.076Z,21.87
2018-10-09T12:31:36.383Z,22.25
2018-10-09T12:34:03.937Z,20.97
2018-10-09T12:36:31.272Z,20.60
2018-10-09T12:38:58.585Z,21.23
2018-10-09T12:41:25.837Z,19.98
2018-10-09T12:43:53.173Z,21.00
2018-10-09T12:46:21.547Z,20.10
2018-10-09T12:48:48.833Z,20.02
2018-10-09T12:51:16.371Z,19.87
2018-10-09T12:53:43.669Z,18.62
2018-10-09T12:56:10.958Z,19.37
2018-10-09T12:58:38.367Z,19.05
2018-10-09T13:01:05.603Z,19.48
2018-10-09T13:03:32.876Z,20.10
2018-10-09T13:06:00.191Z,19.25
2018-10-09T13:08:27.471Z,15.95
2018-10-09T13:10:55.784Z,14.50
2018-10-09T13:13:23.041Z,12.40
2018-10-09T13:15:50.552Z,12.88
2018-10-09T13:18:17.831Z,10.85
2018-10-09T13:20:45.136Z,9.40
2018-10-09T13:23:12.373Z,9.28
2018-10-09T13:25:39.660Z,9.03
2018-10-09T13:28:06.923Z,7.60
2018-10-09T13:30:34.196Z,7.33
2018-10-09T13:33:01.421Z,9.43
2018-10-09T13:35:28.699Z,8.53
2018-10-09T13:37:55.923Z,8.93
2018-10-09T13:40:23.153Z,9.35
2018-10-09T13:42:50.427Z,9.28
2018-10-09T13:45:17.652Z,8.00
2018-10-09T13:47:44.934Z,8.20
2018-10-09T13:50:12.185Z,8.20
2018-10-09T13:52:39.470Z,7.12
2018-10-09T13:55:06.821Z,7.78
2018-10-09T13:57:34.316Z,8.03
2018-10-09T14:00:01.593Z,7.90
2018-10-09T14:02:28.872Z,8.08
2018-10-09T14:04:56.111Z,7.75
2018-10-09T14:07:23.368Z,8.73
2018-10-09T14:09:50.640Z,8.95
2018-10-09T14:12:17.923Z,8.65
2018-10-09T14:14:45.182Z,8.20
2018-10-09T14:17:12.468Z,9.05
2018-10-09T14:19:39.747Z,8.28
2018-10-09T14:22:07.043Z,7.58
2018-10-09T14:24:34.288Z,7.00
2018-10-09T14:27:01.610Z,7.70
2018-10-09T14:29:28.910Z,8.98
2018-10-09T14:31:56.288Z,7.22
2018-10-09T14:34:23.644Z,7.90
2018-10-09T14:36:50.915Z,6.95
2018-10-09T14:39:18.240Z,6.75
2018-10-09T14:41:45.484Z,7.83
2018-10-09T14:44:12.773Z,7.25
2018-10-09T14:46:39.988Z,8.08
2018-10-09T14:49:07.273Z,7.75
2018-10-09T14:51:34.681Z,7.90
2018-10-09T14:54:01.960Z,7.40
2018-10-09T14:56:29.256Z,7.65
2018-10-09T14:58:56.545Z,6.78
2018-10-09T15:01:23.781Z,6.28
2018-10-09T15:03:51.068Z,6.45
2018-10-09T15:06:18.337Z,6.22
2018-10-09T15:08:45.616Z,6.83
2018-10-09T15:11:13.845Z,7.60
2018-10-09T15:13:41.120Z,7.05
2018-10-09T15:16:08.370Z,7.00
2018-10-09T15:18:35.587Z,7.42
2018-10-09T15:21:02.820Z,7.10
2018-10-09T15:23:30.131Z,7.03
2018-10-09T15:25:57.420Z,7.12
2018-10-09T15:28:24.684Z,8.33
2018-10-09T15:30:56.744Z,8.47
2018-10-09T15:33:23.991Z,8.73
2018-10-09T15:35:51.264Z,11.70
2018-10-09T15:38:18.504Z,8.78
2018-10-09T15:40:45.716Z,9.38
2018-10-09T15:43:12.948Z,8.95
2018-10-09T15:45:40.242Z,9.65
2018-10-09T15:48:07.546Z,9.10
2018-10-09T15:50:34.755Z,10.05
2018-10-09T15:53:02.048Z,12.88
2018-10-09T15:55:29.311Z,10.85
2018-10-09T15:57:56.544Z,10.45
2018-10-09T16:00:23.965Z,11.80
2018-10-09T16:02:51.249Z,10.20
2018-10-09T16:05:18.613Z,11.60
2018-10-09T16:07:47.094Z,11.38
2018-10-09T16:10:15.486Z,10.78
2018-10-09T16:12:42.796Z,11.48
2018-10-09T16:15:10.112Z,10.48
2018-10-09T16:17:37.444Z,11.48
2018-10-09T16:20:05.255Z,10.90
2018-10-09T16:22:32.562Z,11.48
2018-10-09T16:24:59.941Z,11.48
2018-10-09T16:27:28.284Z,11.55
2018-10-09T16:29:55.572Z,11.70
2018-10-09T16:32:22.968Z,11.55
2018-10-09T16:34:50.187Z,14.20
2018-10-09T16:37:17.472Z,11.30
2018-10-09T16:39:44.768Z,12.50
2018-10-09T16:42:12.053Z,12.95
2018-10-09T16:44:39.328Z,15.32
2018-10-09T16:47:07.321Z,13.05
2018-10-09T16:49:36.248Z,13.55
2018-10-09T16:52:04.567Z,12.82
2018-10-09T16:54:31.873Z,12.47
2018-10-09T16:57:12.608Z,13.05
2018-10-09T17:00:07.347Z,13.18
2018-10-09T17:02:34.597Z,13.65
2018-10-09T17:05:01.932Z,13.68
2018-10-09T17:07:29.214Z,13.25
2018-10-09T17:09:56.549Z,14.05
2018-10-09T17:12:23.823Z,14.63
2018-10-09T17:14:51.149Z,16.87
2018-10-09T17:17:18.658Z,18.90
2018-10-09T17:19:46.045Z,20.17
2018-10-09T17:22:13.603Z,19.15
2018-10-09T17:24:40.934Z,18.30
2018-10-09T17:27:08.804Z,19.45
2018-10-09T17:29:36.143Z,17.90
2018-10-09T17:32:03.451Z,18.25
2018-10-09T17:34:30.737Z,16.60
2018-10-09T17:36:58.130Z,18.82
2018-10-09T17:39:25.441Z,18.82
2018-10-09T17:41:52.702Z,15.25
2018-10-09T17:44:20.126Z,16.15
2018-10-09T17:46:47.532Z,16.35
2018-10-09T17:49:14.776Z,17.07
2018-10-09T17:51:42.128Z,15.78
2018-10-09T17:54:10.618Z,16.23
2018-10-09T17:56:38.014Z,17.10
2018-10-09T17:59:05.550Z,16.40
2018-10-09T18:01:32.872Z,15.40
2018-10-09T18:04:00.168Z,15.78
2018-10-09T18:06:27.739Z,16.35
2018-10-09T18:08:55.236Z,15.78
2018-10-09T18:11:22.474Z,18.35
2018-10-09T18:13:49.939Z,16.42
2018-10-09T18:16:17.558Z,17.27
2018-10-09T18:18:45.190Z,16.02
2018-10-09T18:21:12.584Z,16.37
2018-10-09T18:23:39.958Z,16.77
2018-10-09T18:26:07.737Z,18.12
2018-10-09T18:28:35.222Z,17.65
2018-10-09T18:31:02.863Z,16.93
2018-10-09T18:33:30.338Z,18.12
2018-10-09T18:35:57.614Z,17.48
2018-10-09T18:38:25.271Z,18.45
2018-10-09T18:40:52.768Z,19.73
2018-10-09T18:43:19.964Z,19.67
2018-10-09T18:45:47.343Z,16.82
2018-10-09T18:48:14.643Z,17.80
2018-10-09T18:50:42.037Z,17.30
2018-10-09T18:53:09.717Z,17.25
2018-10-09T18:55:37.109Z,17.77
2018-10-09T18:58:04.432Z,18.60
2018-10-09T19:00:31.825Z,17.05
2018-10-09T19:02:59.077Z,16.67
2018-10-09T19:05:26.357Z,18.80
2018-10-09T19:07:53.694Z,18.50
2018-10-09T19:10:21.565Z,19.05
2018-10-09T19:12:48.868Z,19.23
2018-10-09T19:15:16.318Z,17.65
2018-10-09T19:17:43.664Z,18.20
2018-10-09T19:20:11.239Z,19.05
2018-10-09T19:22:38.537Z,19.10
2018-10-09T19:25:06.201Z,19.48
2018-10-09T19:27:33.524Z,22.37
2018-10-09T19:30:01.101Z,21.02
2018-10-09T19:32:28.474Z,20.88
2018-10-09T19:34:55.861Z,19.87
2018-10-09T19:37:23.501Z,18.25
2018-10-09T19:39:50.865Z,19.12
2018-10-09T19:42:18.187Z,20.02
2018-10-09T19:44:45.907Z,19.75
2018-10-09T19:47:13.223Z,20.32
2018-10-09T19:49:41.087Z,20.20
2018-10-09T19:52:08.435Z,21.25
2018-10-09T19:54:35.814Z,20.72
2018-10-09T19:57:03.336Z,20.92
2018-10-09T19:59:31.120Z,21.65
2018-10-09T20:01:58.704Z,22.48
2018-10-09T20:04:25.993Z,19.48
2018-10-09T20:06:53.833Z,21.75
2018-10-09T20:09:21.203Z,19.92
2018-10-09T20:11:48.641Z,18.57
2018-10-09T20:14:17.021Z,17.95
2018-10-09T20:16:44.700Z,17.65
2018-10-09T20:19:12.470Z,18.87
2018-10-09T20:21:40.366Z,18.32
2018-10-09T20:24:07.958Z,19.85
2018-10-09T20:26:36.888Z,22.75
2018-10-09T20:29:04.271Z,20.02
2018-10-09T20:31:31.784Z,16.55
2018-10-09T20:33:59.197Z,18.37
2018-10-09T20:36:26.661Z,17.60
2018-10-09T20:38:54.361Z,17.65
2018-10-09T20:41:21.845Z,18.95
2018-10-09T20:43:49.186Z,18.95
2018-10-09T20:46:16.521Z,19.87
2018-10-09T20:48:43.831Z,20.35
2018-10-09T20:51:11.281Z,20.17
2018-10-09T20:53:38.587Z,18.65
2018-10-09T20:56:06.049Z,18.82
2018-10-09T20:58:33.819Z,19.48
2018-10-09T21:01:01.414Z,22.85
2018-10-09T21:03:29.908Z,23.25
2018-10-09T21:05:57.485Z,22.40
2018-10-09T21:08:25.165Z,21.97
2018-10-09T21:10:52.699Z,22.40
2018-10-09T21:13:20.247Z,21.90
2018-10-09T21:15:47.816Z,22.75
2018-10-09T21:18:15.165Z,24.47
2018-10-09T21:20:42.773Z,22.25
2018-10-09T21:23:10.211Z,23.10
2018-10-09T21:25:37.915Z,23.70
2018-10-09T21:28:05.270Z,23.37
2018-10-09T21:30:33.047Z,23.85
2018-10-09T21:33:00.401Z,22.05
2018-10-09T21:35:27.831Z,23.87
2018-10-09T21:37:55.177Z,24.17
2018-10-09T21:40:22.450Z,23.47
2018-10-09T21:42:49.742Z,24.33
2018-10-09T21:45:17.504Z,24.27
2018-10-09T21:47:50.493Z,24.03
2018-10-09T21:50:17.851Z,23.47
2018-10-09T21:52:45.417Z,23.70
2018-10-09T21:55:12.747Z,23.67
2018-10-09T21:57:40.976Z,23.90
2018-10-09T22:00:09.629Z,25.97
2018-10-09T22:02:38.188Z,22.13
2018-10-09T22:05:07.090Z,22.53
2018-10-09T22:07:34.458Z,20.17
2018-10-09T22:10:04.751Z,20.27
2018-10-09T22:12:32.069Z,18.42
2018-10-09T22:14:59.477Z,18.63
2018-10-09T22:17:27.642Z,20.87
2018-10-09T22:19:55.567Z,22.37
2018-10-09T22:22:23.123Z,23.13
2018-10-09T22:24:50.800Z,23.17
2018-10-09T22:27:18.605Z,23.83
2018-10-09T22:29:46.118Z,25.17
2018-10-09T22:32:13.820Z,22.80
2018-10-09T22:34:41.178Z,21.68
2018-10-09T22:37:09.021Z,21.57
2018-10-09T22:39:36.571Z,23.23
2018-10-09T22:42:04.038Z,22.27
2018-10-09T22:44:31.308Z,23.97
2018-10-09T22:46:58.603Z,24.67
2018-10-09T22:49:25.942Z,24.43
2018-10-09T22:51:53.237Z,23.53
2018-10-09T22:54:20.733Z,24.30
2018-10-09T22:56:47.994Z,23.57
2018-10-09T22:59:15.288Z,23.93
2018-10-09T23:01:43.405Z,23.63
2018-10-09T23:04:10.721Z,23.67
2018-10-09T23:06:38.361Z,24.03
2018-10-09T23:09:09.037Z,26.50
2018-10-09T23:11:36.315Z,23.93
2018-10-09T23:14:04.109Z,23.77
2018-10-09T23:16:31.393Z,24.37
2018-10-09T23:18:59.444Z,24.07
2018-10-09T23:21:26.799Z,23.00
2018-10-09T23:23:54.109Z,24.13
2018-10-09T23:26:21.364Z,22.37
2018-10-09T23:28:48.757Z,23.63
2018-10-09T23:31:16.095Z,19.07
2018-10-09T23:33:43.377Z,17.87
2018-10-09T23:36:10.710Z,23.67
2018-10-09T23:38:38.041Z,24.83
2018-10-09T23:41:05.728Z,23.03
2018-10-09T23:43:33.232Z,23.93
2018-10-09T23:46:00.637Z,23.30
2018-10-09T23:48:27.935Z,25.10
2018-10-09T23:50:55.224Z,24.00
2018-10-09T23:53:22.569Z,23.33
2018-10-09T23:55:49.877Z,23.47
2018-10-09T23:58:17.580Z,24.50
